Time;durP1;ratioP1;P1;durP2;ratioP2;P2;SDS_P1;SDS_P2;PMS_P1;PMS_P2;Temp;Humidity;BMP_temperature;BMP_pressure;BME280_temperature;BME280_humidity;BME280_pressure;Samples;Min_cycle;Max_cycle;Signal;HPM_P1;HPM_P2
2022/05/20 00:03:29;;;;;;;9.40;7.60;;;;;;;;;;10418024;28;20511;-81
2022/05/20 00:08:32;;;;;;;11.20;8.38;;;;;;;;;;10420659;28;20899;-81
2022/05/20 00:13:34;;;;;;;12.63;8.70;;;;;;;;;;10427519;28;20409;-81
2022/05/20 00:18:37;;;;;;;10.25;8.68;;;;;;;;;;10458964;28;20787;-80
2022/05/20 00:23:41;;;;;;;10.18;8.73;;;;;;;;;;10471750;28;20425;-80
2022/05/20 00:28:46;;;;;;;11.02;8.90;;;;;;;;;;10459455;28;20481;-80
2022/05/20 00:33:48;;;;;;;12.63;8.13;;;;;;;;;;10458074;28;20398;-81
2022/05/20 00:38:52;;;;;;;9.32;8.27;;;;;;;;;;10464477;28;20410;-81
2022/05/20 00:43:53;;;;;;;9.55;8.52;;;;;;;;;;10459098;28;20521;-81
2022/05/20 00:49:01;;;;;;;13.18;9.27;;;;;;;;;;10457937;28;20398;-80
2022/05/20 00:54:11;;;;;;;11.90;9.20;;;;;;;;;;10476215;28;20526;-81
2022/05/20 00:59:17;;;;;;;9.75;8.65;;;;;;;;;;10460735;28;20870;-81
2022/05/20 01:04:21;;;;;;;10.55;9.43;;;;;;;;;;10457722;28;20997;-80
2022/05/20 01:09:24;;;;;;;10.63;9.52;;;;;;;;;;10460959;28;20763;-81
2022/05/20 01:14:26;;;;;;;12.03;10.10;;;;;;;;;;10446335;28;20401;-81
2022/05/20 01:19:36;;;;;;;12.20;9.60;;;;;;;;;;10422873;28;20419;-80
2022/05/20 01:24:39;;;;;;;11.33;9.70;;;;;;;;;;10432449;28;20433;-82
2022/05/20 01:29:41;;;;;;;11.82;10.60;;;;;;;;;;10418495;28;20413;-80
2022/05/20 01:34:43;;;;;;;13.23;11.70;;;;;;;;;;10422395;28;20747;-80
2022/05/20 01:39:46;;;;;;;14.82;12.20;;;;;;;;;;10428533;28;20402;-81
2022/05/20 01:44:55;;;;;;;14.65;12.38;;;;;;;;;;10423431;28;20420;-80
2022/05/20 01:50:03;;;;;;;14.40;12.95;;;;;;;;;;10423739;28;20408;-80
2022/05/20 01:55:12;;;;;;;15.23;13.38;;;;;;;;;;10438679;28;20399;-81
2022/05/20 02:00:16;;;;;;;15.27;13.63;;;;;;;;;;10423220;28;20395;-81
2022/05/20 02:05:25;;;;;;;15.55;13.95;;;;;;;;;;10441163;28;20425;-81
2022/05/20 02:10:34;;;;;;;15.63;14.03;;;;;;;;;;10444232;28;20408;-80
2022/05/20 02:15:41;;;;;;;16.92;14.93;;;;;;;;;;10464170;28;20493;-81
2022/05/20 02:20:47;;;;;;;17.00;15.40;;;;;;;;;;10486147;28;20394;-80
2022/05/20 02:25:53;;;;;;;15.80;14.20;;;;;;;;;;10468065;28;20498;-81
2022/05/20 02:30:58;;;;;;;16.17;14.50;;;;;;;;;;10450796;28;20431;-81
2022/05/20 02:36:05;;;;;;;17.52;14.50;;;;;;;;;;10483073;28;20493;-80
2022/05/20 02:41:09;;;;;;;15.57;13.98;;;;;;;;;;10498339;28;20503;-81
2022/05/20 02:46:12;;;;;;;15.73;14.10;;;;;;;;;;10484708;28;20402;-80
2022/05/20 02:51:16;;;;;;;15.93;13.83;;;;;;;;;;10484200;28;20485;-80
2022/05/20 02:56:20;;;;;;;15.80;13.90;;;;;;;;;;10484775;28;20489;-81
2022/05/20 03:06:45;;;;;;;13.98;12.68;;;;;;;;;;10482878;28;20477;-80
2022/05/20 03:11:48;;;;;;;13.10;11.77;;;;;;;;;;10482250;28;20487;-81
2022/05/20 03:16:51;;;;;;;13.43;11.47;;;;;;;;;;10432251;28;20407;-81
2022/05/20 03:21:52;;;;;;;13.68;12.20;;;;;;;;;;10455574;28;20412;-81
2022/05/20 03:26:56;;;;;;;13.10;11.70;;;;;;;;;;10521963;28;20418;-80
2022/05/20 03:31:58;;;;;;;12.88;11.50;;;;;;;;;;10514949;28;20456;-80
2022/05/20 03:36:59;;;;;;;13.63;11.80;;;;;;;;;;10482384;28;20398;-80
2022/05/20 03:42:03;;;;;;;12.57;11.27;;;;;;;;;;10515762;28;20426;-80
2022/05/20 03:47:05;;;;;;;11.63;10.43;;;;;;;;;;10523323;28;20397;-80
2022/05/20 03:52:07;;;;;;;11.80;10.53;;;;;;;;;;10521482;28;20396;-80
2022/05/20 03:57:11;;;;;;;11.80;10.45;;;;;;;;;;10521042;28;20446;-80
2022/05/20 04:02:14;;;;;;;13.48;9.80;;;;;;;;;;10522036;28;20509;-81
2022/05/20 04:07:18;;;;;;;11.43;10.02;;;;;;;;;;10474887;28;20836;-80
2022/05/20 04:12:26;;;;;;;10.65;9.52;;;;;;;;;;10460612;28;20944;-82
2022/05/20 04:17:28;;;;;;;11.07;9.75;;;;;;;;;;10460523;28;20402;-81
2022/05/20 04:22:32;;;;;;;10.68;9.30;;;;;;;;;;10461401;28;20912;-81
2022/05/20 04:27:35;;;;;;;11.15;8.77;;;;;;;;;;10462165;28;20432;-80
2022/05/20 04:32:37;;;;;;;9.47;8.50;;;;;;;;;;10460925;28;20489;-80
2022/05/20 04:37:39;;;;;;;9.65;8.55;;;;;;;;;;10459342;28;20494;-80
2022/05/20 04:48:02;;;;;;;9.57;8.57;;;;;;;;;;10462952;28;20795;-81
2022/05/20 04:53:04;;;;;;;10.27;8.35;;;;;;;;;;10466834;28;20400;-80
2022/05/20 04:58:07;;;;;;;12.57;8.25;;;;;;;;;;10467680;28;20398;-79
2022/05/20 05:03:09;;;;;;;10.45;8.38;;;;;;;;;;10470189;28;20418;-81
2022/05/20 05:08:11;;;;;;;12.52;8.50;;;;;;;;;;10470654;28;20397;-81
2022/05/20 05:13:15;;;;;;;10.20;8.27;;;;;;;;;;10466970;28;20512;-79
2022/05/20 05:18:22;;;;;;;11.23;8.32;;;;;;;;;;10466302;28;20426;-80
2022/05/20 05:23:23;;;;;;;10.25;8.40;;;;;;;;;;10465227;28;20420;-80
2022/05/20 05:28:27;;;;;;;10.47;8.10;;;;;;;;;;10464054;28;20410;-80
2022/05/20 05:33:28;;;;;;;9.27;7.78;;;;;;;;;;10455506;28;20402;-79
2022/05/20 05:38:31;;;;;;;8.05;7.25;;;;;;;;;;10453108;28;20468;-74
2022/05/20 05:43:35;;;;;;;9.90;8.03;;;;;;;;;;10449748;28;20419;-80
2022/05/20 05:48:36;;;;;;;11.80;8.20;;;;;;;;;;10450167;28;20409;-82
2022/05/20 05:53:38;;;;;;;10.87;8.07;;;;;;;;;;10456696;28;20483;-81
2022/05/20 05:58:41;;;;;;;11.23;8.93;;;;;;;;;;10449645;28;20404;-80
2022/05/20 06:03:43;;;;;;;10.13;8.40;;;;;;;;;;10455185;28;20513;-81
2022/05/20 06:08:45;;;;;;;15.00;8.70;;;;;;;;;;10473239;28;20402;-80
2022/05/20 06:13:49;;;;;;;15.35;8.38;;;;;;;;;;10461583;28;20412;-81
2022/05/20 06:18:51;;;;;;;11.10;8.32;;;;;;;;;;10459760;28;20493;-80
2022/05/20 06:23:53;;;;;;;10.05;9.05;;;;;;;;;;10459306;28;20427;-82
2022/05/20 06:28:57;;;;;;;15.25;9.50;;;;;;;;;;10459607;28;20400;-82
2022/05/20 06:33:58;;;;;;;13.30;8.65;;;;;;;;;;10456542;28;20426;-82
2022/05/20 06:44:21;;;;;;;12.53;9.17;;;;;;;;;;10458483;28;20410;-80
2022/05/20 06:49:23;;;;;;;11.65;8.20;;;;;;;;;;10457161;28;20398;-79
2022/05/20 06:54:24;;;;;;;8.68;5.00;;;;;;;;;;10469930;28;20411;-80
2022/05/20 06:59:28;;;;;;;9.68;6.32;;;;;;;;;;10455165;28;20418;-81
2022/05/20 07:04:32;;;;;;;8.15;5.53;;;;;;;;;;10456984;28;20423;-79
2022/05/20 07:09:34;;;;;;;10.55;5.78;;;;;;;;;;10462788;28;20471;-81
2022/05/20 07:14:37;;;;;;;8.80;5.90;;;;;;;;;;10465823;28;20424;-80
2022/05/20 07:19:40;;;;;;;4.78;3.90;;;;;;;;;;10471278;28;20422;-82
2022/05/20 07:24:43;;;;;;;7.60;3.97;;;;;;;;;;10457195;28;20957;-81
2022/05/20 07:29:46;;;;;;;5.30;3.60;;;;;;;;;;10458936;28;20407;-80
2022/05/20 07:34:48;;;;;;;6.53;3.83;;;;;;;;;;10455276;28;20413;-80
2022/05/20 07:39:49;;;;;;;6.00;4.07;;;;;;;;;;10471235;28;21066;-81
2022/05/20 07:44:53;;;;;;;8.17;4.47;;;;;;;;;;10464323;28;20428;-82
2022/05/20 07:49:55;;;;;;;8.05;4.13;;;;;;;;;;10461800;28;20408;-81
2022/05/20 07:54:57;;;;;;;5.18;3.97;;;;;;;;;;10463060;28;20450;-81
2022/05/20 08:00:03;;;;;;;7.10;3.80;;;;;;;;;;10457556;28;20406;-81
2022/05/20 08:05:07;;;;;;;5.25;3.15;;;;;;;;;;10461618;28;20801;-82
2022/05/20 08:10:12;;;;;;;6.72;3.13;;;;;;;;;;10467194;28;20404;-82
2022/05/20 08:15:17;;;;;;;4.85;2.95;;;;;;;;;;10461185;28;20488;-83
2022/05/20 08:20:25;;;;;;;7.03;3.20;;;;;;;;;;10459523;28;20398;-82
2022/05/20 08:25:28;;;;;;;4.18;2.40;;;;;;;;;;10453880;28;20506;-81
2022/05/20 08:30:32;;;;;;;6.85;2.80;;;;;;;;;;10450088;28;20964;-81
2022/05/20 08:35:34;;;;;;;4.88;2.50;;;;;;;;;;10457626;28;20400;-81
2022/05/20 08:40:42;;;;;;;4.50;2.40;;;;;;;;;;10459196;28;20431;-81
2022/05/20 08:45:45;;;;;;;5.57;2.73;;;;;;;;;;10463603;28;20429;-81
2022/05/20 08:50:48;;;;;;;3.83;2.75;;;;;;;;;;10459395;28;20412;-81
2022/05/20 08:55:50;;;;;;;7.47;3.27;;;;;;;;;;10470782;28;20406;-81
2022/05/20 09:00:53;;;;;;;5.97;3.40;;;;;;;;;;10461055;28;20407;-81
2022/05/20 09:06:05;;;;;;;5.70;3.10;;;;;;;;;;10462512;28;20429;-83
2022/05/20 09:11:13;;;;;;;7.27;3.60;;;;;;;;;;10467094;28;20417;-81
2022/05/20 09:16:19;;;;;;;5.32;3.20;;;;;;;;;;10434313;28;20490;-83
2022/05/20 09:21:28;;;;;;;3.60;2.90;;;;;;;;;;10420621;28;20461;-83
2022/05/20 09:26:33;;;;;;;4.53;3.40;;;;;;;;;;10426623;28;20507;-82
2022/05/20 09:31:44;;;;;;;2.80;2.50;;;;;;;;;;10425137;28;20392;-82
2022/05/20 09:36:57;;;;;;;4.47;2.95;;;;;;;;;;10419006;28;20491;-83
2022/05/20 09:42:04;;;;;;;5.07;2.60;;;;;;;;;;10432532;28;20407;-82
2022/05/20 09:47:14;;;;;;;5.28;3.30;;;;;;;;;;10427746;28;20818;-82
2022/05/20 09:52:22;;;;;;;4.05;2.75;;;;;;;;;;10426483;28;20397;-83
2022/05/20 09:57:30;;;;;;;7.88;3.00;;;;;;;;;;10439365;28;20405;-78
2022/05/20 10:02:38;;;;;;;3.23;2.50;;;;;;;;;;10435577;28;20485;-84
2022/05/20 10:08:04;;;;;;;4.28;2.50;;;;;;;;;;10439861;28;20492;-83
2022/05/20 10:13:10;;;;;;;4.87;2.70;;;;;;;;;;10425569;28;20886;-85
2022/05/20 10:18:23;;;;;;;3.40;2.28;;;;;;;;;;10465994;28;20404;-85
2022/05/20 10:23:33;;;;;;;3.00;2.20;;;;;;;;;;10468616;28;20426;-84
2022/05/20 10:34:10;;;;;;;3.20;2.40;;;;;;;;;;10464902;28;20399;-82
2022/05/20 10:39:25;;;;;;;5.75;2.50;;;;;;;;;;10474623;28;20422;-82
2022/05/20 10:50:08;;;;;;;3.28;2.20;;;;;;;;;;10465860;28;20867;-82
2022/05/20 10:55:19;;;;;;;3.73;2.37;;;;;;;;;;10472548;28;20402;-81
2022/05/20 11:00:23;;;;;;;3.70;2.70;;;;;;;;;;10464544;28;20398;-82
2022/05/20 11:05:50;;;;;;;4.23;2.70;;;;;;;;;;10464922;28;20428;-81
2022/05/20 11:11:07;;;;;;;6.22;3.00;;;;;;;;;;10472387;28;20475;-82
2022/05/20 11:16:29;;;;;;;6.27;3.30;;;;;;;;;;10441174;28;20421;-83
2022/05/20 11:21:48;;;;;;;4.63;3.10;;;;;;;;;;10431048;28;20428;-83
2022/05/20 11:27:03;;;;;;;4.57;3.50;;;;;;;;;;10422992;28;20728;-82
2022/05/20 11:32:10;;;;;;;7.93;3.95;;;;;;;;;;10436922;28;20431;-82
2022/05/20 11:37:28;;;;;;;5.07;3.50;;;;;;;;;;10437044;28;20914;-82
2022/05/20 11:42:43;;;;;;;8.10;3.83;;;;;;;;;;10429039;28;20899;-84
2022/05/20 11:48:07;;;;;;;4.30;3.85;;;;;;;;;;10421927;28;20410;-82
2022/05/20 11:53:14;;;;;;;5.70;4.40;;;;;;;;;;10413947;28;20492;-83
2022/05/20 11:58:24;;;;;;;5.63;3.60;;;;;;;;;;10436093;28;20748;-82
2022/05/20 12:03:29;;;;;;;5.65;5.05;;;;;;;;;;10426801;28;20427;-83
2022/05/20 12:08:54;;;;;;;7.18;3.63;;;;;;;;;;10438851;28;20402;-82
2022/05/20 12:14:05;;;;;;;6.70;4.80;;;;;;;;;;10444167;28;20935;-81
2022/05/20 12:24:42;;;;;;;5.28;3.60;;;;;;;;;;10479041;28;20414;-83
2022/05/20 12:30:04;;;;;;;5.18;4.40;;;;;;;;;;10481598;28;20451;-81
2022/05/20 12:35:10;;;;;;;6.82;3.40;;;;;;;;;;10474200;28;20421;-81
2022/05/20 12:40:20;;;;;;;6.07;3.40;;;;;;;;;;10474479;28;20727;-83
2022/05/20 12:45:22;;;;;;;5.93;4.07;;;;;;;;;;10467997;28;20430;-82
2022/05/20 12:50:26;;;;;;;6.63;4.07;;;;;;;;;;10475961;28;20402;-82
2022/05/20 12:55:37;;;;;;;3.80;3.20;;;;;;;;;;10478643;28;20418;-82
2022/05/20 13:00:44;;;;;;;4.43;2.80;;;;;;;;;;10476577;28;20953;-82
2022/05/20 13:05:50;;;;;;;4.95;3.20;;;;;;;;;;10477343;28;20425;-81
2022/05/20 13:10:53;;;;;;;9.70;3.20;;;;;;;;;;10477328;28;20535;-82
2022/05/20 13:15:57;;;;;;;3.65;3.33;;;;;;;;;;10479089;28;20765;-81
2022/05/20 13:21:01;;;;;;;5.85;3.42;;;;;;;;;;10472071;28;20900;-80
2022/05/20 13:26:05;;;;;;;5.95;3.58;;;;;;;;;;10473886;28;20449;-81
2022/05/20 13:31:10;;;;;;;4.57;3.05;;;;;;;;;;10464854;28;20770;-81
2022/05/20 13:36:17;;;;;;;4.50;2.80;;;;;;;;;;10453659;28;20406;-81
2022/05/20 13:41:24;;;;;;;4.53;2.90;;;;;;;;;;10460586;28;20439;-81
2022/05/20 13:51:54;;;;;;;3.73;2.97;;;;;;;;;;10460112;28;20396;-81
2022/05/20 13:56:58;;;;;;;4.53;3.10;;;;;;;;;;10461398;28;20411;-81
2022/05/20 14:02:07;;;;;;;4.47;2.80;;;;;;;;;;10451337;28;20912;-82
2022/05/20 14:07:12;;;;;;;3.67;2.50;;;;;;;;;;10463303;28;20493;-82
2022/05/20 14:12:20;;;;;;;4.23;2.27;;;;;;;;;;10451830;28;20409;-79
2022/05/20 14:17:22;;;;;;;3.20;2.30;;;;;;;;;;10449338;28;20468;-79
2022/05/20 14:22:30;;;;;;;3.42;2.35;;;;;;;;;;10449368;28;21145;-80
2022/05/20 14:27:41;;;;;;;4.55;2.08;;;;;;;;;;10462348;28;20555;-79
2022/05/20 14:32:43;;;;;;;2.75;1.73;;;;;;;;;;10480059;28;20492;-79
2022/05/20 14:37:45;;;;;;;4.13;1.70;;;;;;;;;;10476376;28;20409;-80
2022/05/20 14:42:56;;;;;;;3.05;1.63;;;;;;;;;;10467194;28;20776;-80
2022/05/20 14:48:02;;;;;;;5.20;1.80;;;;;;;;;;10455700;28;20770;-81
2022/05/20 14:53:06;;;;;;;2.40;1.70;;;;;;;;;;10460367;28;20517;-81
2022/05/20 14:58:14;;;;;;;3.67;1.70;;;;;;;;;;10459698;28;20400;-80
2022/05/20 15:03:16;;;;;;;3.75;1.67;;;;;;;;;;10456017;28;20933;-80
2022/05/20 15:08:19;;;;;;;4.93;1.90;;;;;;;;;;10460504;28;20963;-80
2022/05/20 15:13:22;;;;;;;3.10;1.70;;;;;;;;;;10453309;28;20400;-82
2022/05/20 15:18:24;;;;;;;3.08;1.80;;;;;;;;;;10455893;28;20824;-81
2022/05/20 15:23:34;;;;;;;4.93;1.73;;;;;;;;;;10459342;28;20895;-81
2022/05/20 15:28:51;;;;;;;3.20;1.70;;;;;;;;;;10440329;28;20740;-80
2022/05/20 15:39:16;;;;;;;5.93;2.10;;;;;;;;;;10450671;28;20408;-79
2022/05/20 15:44:20;;;;;;;7.93;2.20;;;;;;;;;;10449640;28;20416;-79
2022/05/20 15:49:22;;;;;;;4.40;1.90;;;;;;;;;;10455354;28;20524;-80
2022/05/20 15:54:26;;;;;;;3.97;1.90;;;;;;;;;;10463107;28;20420;-80
2022/05/20 15:59:33;;;;;;;4.60;1.95;;;;;;;;;;10455762;28;20884;-79
2022/05/20 16:04:35;;;;;;;5.72;1.80;;;;;;;;;;10459957;28;20555;-81
2022/05/20 16:09:37;;;;;;;3.40;1.77;;;;;;;;;;10452651;28;20814;-81
2022/05/20 16:14:40;;;;;;;3.70;1.60;;;;;;;;;;10456014;28;20494;-80
2022/05/20 16:19:42;;;;;;;5.57;2.00;;;;;;;;;;10466053;28;20418;-81
2022/05/20 16:24:44;;;;;;;4.55;1.65;;;;;;;;;;10465632;28;20418;-81
2022/05/20 16:29:47;;;;;;;6.25;2.03;;;;;;;;;;10471165;28;20406;-79
2022/05/20 16:34:49;;;;;;;4.60;1.83;;;;;;;;;;10467707;28;20402;-79
2022/05/20 16:39:52;;;;;;;3.90;1.70;;;;;;;;;;10454866;28;20441;-81
2022/05/20 16:44:55;;;;;;;3.50;1.50;;;;;;;;;;10461304;28;20426;-76
2022/05/20 16:49:57;;;;;;;3.22;1.70;;;;;;;;;;10455176;28;20894;-79
2022/05/20 16:55:04;;;;;;;6.30;1.90;;;;;;;;;;10458367;28;20412;-81
2022/05/20 17:05:28;;;;;;;5.53;1.90;;;;;;;;;;10453844;28;20408;-78
2022/05/20 17:10:30;;;;;;;7.20;1.98;;;;;;;;;;10456525;28;20412;-80
2022/05/20 17:15:33;;;;;;;5.60;1.85;;;;;;;;;;10455992;28;20453;-79
2022/05/20 17:20:35;;;;;;;6.68;1.98;;;;;;;;;;10453076;28;20940;-78
2022/05/20 17:25:38;;;;;;;3.45;1.80;;;;;;;;;;10456918;28;20878;-79
2022/05/20 17:30:41;;;;;;;4.05;2.10;;;;;;;;;;10448839;28;20782;-82
2022/05/20 17:35:43;;;;;;;3.35;1.75;;;;;;;;;;10456029;28;20566;-82
2022/05/20 17:40:44;;;;;;;6.83;3.40;;;;;;;;;;10459596;28;20767;-80
2022/05/20 17:45:48;;;;;;;6.28;2.80;;;;;;;;;;10456272;28;20421;-80
2022/05/20 17:50:50;;;;;;;6.10;2.87;;;;;;;;;;10456326;28;20533;-80
2022/05/20 17:55:52;;;;;;;4.25;1.80;;;;;;;;;;10462151;28;20411;-82
2022/05/20 18:00:55;;;;;;;3.25;1.80;;;;;;;;;;10463059;28;20403;-81
2022/05/20 18:06:00;;;;;;;3.83;1.90;;;;;;;;;;10464654;28;20450;-80
2022/05/20 18:11:01;;;;;;;5.35;1.77;;;;;;;;;;10465116;28;20580;-80
2022/05/20 18:16:06;;;;;;;3.30;1.77;;;;;;;;;;10441492;28;20413;-80
2022/05/20 18:21:08;;;;;;;5.18;1.90;;;;;;;;;;10424908;28;20464;-80
2022/05/20 18:26:10;;;;;;;4.53;2.27;;;;;;;;;;10422670;28;20514;-81
2022/05/20 18:31:13;;;;;;;3.33;1.92;;;;;;;;;;10422319;28;20500;-80
2022/05/20 18:41:39;;;;;;;4.00;2.08;;;;;;;;;;10377403;28;20411;-80
2022/05/20 18:46:42;;;;;;;3.40;2.25;;;;;;;;;;10411421;28;20421;-81
2022/05/20 18:51:44;;;;;;;3.35;2.20;;;;;;;;;;10413807;28;20423;-81
2022/05/20 18:56:46;;;;;;;3.75;2.00;;;;;;;;;;10407526;28;20441;-80
2022/05/20 19:01:49;;;;;;;5.00;2.43;;;;;;;;;;10406633;28;20420;-81
2022/05/20 19:06:51;;;;;;;2.77;2.07;;;;;;;;;;10406300;28;20456;-80
2022/05/20 19:11:53;;;;;;;4.23;2.77;;;;;;;;;;10409027;28;20935;-82
2022/05/20 19:16:56;;;;;;;5.95;2.40;;;;;;;;;;10441891;28;20953;-80
2022/05/20 19:21:59;;;;;;;3.90;2.00;;;;;;;;;;10447513;28;20415;-81
2022/05/20 19:27:01;;;;;;;6.43;2.20;;;;;;;;;;10448751;28;20642;-80
2022/05/20 19:32:06;;;;;;;5.43;2.10;;;;;;;;;;10444052;28;20454;-80
2022/05/20 19:37:11;;;;;;;6.33;1.87;;;;;;;;;;10442033;28;20915;-80
2022/05/20 19:42:12;;;;;;;4.27;1.97;;;;;;;;;;10447169;28;21172;-81
2022/05/20 19:47:16;;;;;;;4.17;1.60;;;;;;;;;;10444485;28;20517;-81
2022/05/20 19:52:17;;;;;;;4.60;1.90;;;;;;;;;;10442870;28;20416;-80
2022/05/20 20:02:40;;;;;;;4.35;1.80;;;;;;;;;;10446700;28;20423;-79
2022/05/20 20:07:42;;;;;;;3.40;1.97;;;;;;;;;;10441630;28;20432;-79
2022/05/20 20:12:46;;;;;;;3.70;1.88;;;;;;;;;;10440788;28;20570;-82
2022/05/20 20:17:49;;;;;;;6.13;2.05;;;;;;;;;;10437973;28;20489;-82
2022/05/20 20:28:11;;;;;;;4.43;2.40;;;;;;;;;;10458989;22;20412;-82
2022/05/20 20:33:14;;;;;;;4.53;2.40;;;;;;;;;;10443276;28;20453;-83
2022/05/20 20:38:16;;;;;;;5.85;1.98;;;;;;;;;;10447125;28;20422;-82
2022/05/20 20:43:18;;;;;;;2.80;2.00;;;;;;;;;;10448053;28;20497;-83
2022/05/20 20:48:21;;;;;;;5.82;2.10;;;;;;;;;;10447469;28;20780;-83
2022/05/20 20:53:23;;;;;;;2.67;1.97;;;;;;;;;;10451989;28;20461;-82
2022/05/20 20:58:25;;;;;;;3.90;2.05;;;;;;;;;;10449329;28;20838;-82
2022/05/20 21:03:31;;;;;;;4.72;2.10;;;;;;;;;;10454861;28;20436;-82
2022/05/20 21:08:33;;;;;;;7.13;2.50;;;;;;;;;;10451395;28;20414;-81
2022/05/20 21:13:36;;;;;;;6.17;2.27;;;;;;;;;;10454759;28;20983;-82
2022/05/20 21:18:39;;;;;;;7.03;2.20;;;;;;;;;;10455080;28;20447;-82
2022/05/20 21:23:42;;;;;;;2.72;2.03;;;;;;;;;;10452853;28;20410;-82
2022/05/20 21:28:44;;;;;;;4.80;2.63;;;;;;;;;;10442583;28;20484;-82
2022/05/20 21:33:50;;;;;;;5.20;2.37;;;;;;;;;;10448145;28;20588;-81
2022/05/20 21:38:51;;;;;;;3.58;2.63;;;;;;;;;;10452762;28;20418;-82
2022/05/20 21:43:57;;;;;;;5.88;3.22;;;;;;;;;;10458060;28;20504;-82
2022/05/20 21:49:00;;;;;;;5.15;4.28;;;;;;;;;;10460576;28;20887;-83
2022/05/20 21:54:02;;;;;;;7.85;5.20;;;;;;;;;;10465985;28;20412;-82
2022/05/20 21:59:04;;;;;;;8.52;5.40;;;;;;;;;;10461796;28;20400;-83
2022/05/20 22:09:23;;;;;;;7.60;5.40;;;;;;;;;;10442979;28;21368;-83
2022/05/20 22:14:25;;;;;;;7.38;5.32;;;;;;;;;;10460130;28;20804;-82
2022/05/20 22:19:28;;;;;;;7.78;5.90;;;;;;;;;;10459308;28;20390;-82
2022/05/20 22:24:32;;;;;;;8.65;5.65;;;;;;;;;;10463649;28;20495;-82
2022/05/20 22:29:34;;;;;;;6.67;5.33;;;;;;;;;;10461719;28;20432;-82
2022/05/20 22:34:38;;;;;;;6.63;5.57;;;;;;;;;;10461314;28;20400;-82
2022/05/20 22:39:40;;;;;;;8.57;5.53;;;;;;;;;;10466120;28;20417;-83
2022/05/20 22:44:42;;;;;;;7.17;5.70;;;;;;;;;;10461562;28;20585;-82
2022/05/20 22:49:45;;;;;;;7.80;5.47;;;;;;;;;;10461033;28;20418;-82
2022/05/20 23:00:09;;;;;;;6.10;5.07;;;;;;;;;;10462293;28;20388;-82
2022/05/20 23:05:12;;;;;;;7.50;4.95;;;;;;;;;;10462552;28;20789;-82
2022/05/20 23:10:14;;;;;;;5.30;4.80;;;;;;;;;;10463647;28;20836;-82
2022/05/20 23:15:16;;;;;;;7.22;4.65;;;;;;;;;;10461316;28;20402;-82
2022/05/20 23:20:21;;;;;;;5.10;4.50;;;;;;;;;;10460416;28;20414;-82
2022/05/20 23:25:23;;;;;;;9.07;4.95;;;;;;;;;;10466926;28;20873;-82
2022/05/20 23:30:25;;;;;;;8.02;5.00;;;;;;;;;;10458800;28;20411;-82
2022/05/20 23:35:31;;;;;;;6.45;5.43;;;;;;;;;;10461472;28;20485;-82
2022/05/20 23:40:33;;;;;;;9.23;5.80;;;;;;;;;;10457180;28;20404;-82
2022/05/20 23:45:38;;;;;;;6.55;5.65;;;;;;;;;;10458037;28;20409;-82
2022/05/20 23:50:41;;;;;;;6.07;5.30;;;;;;;;;;10458889;28;20878;-82
